sensor_id;sensor_type;location;lat;lon;timestamp;temperature;humidity
9537;DHT22;4807;48.024;11.726;2022-12-29T00:01:01;2.70;99.90
9537;DHT22;4807;48.024;11.726;2022-12-29T00:04:12;2.80;99.90
9537;DHT22;4807;48.024;11.726;2022-12-29T00:07:22;2.90;99.90
9537;DHT22;4807;48.024;11.726;2022-12-29T00:10:31;2.90;99.90
9537;DHT22;4807;48.024;11.726;2022-12-29T00:13:41;2.80;99.90
9537;DHT22;4807;48.024;11.726;2022-12-29T00:17:08;2.80;99.90
9537;DHT22;4807;48.024;11.726;2022-12-29T00:20:17;2.80;99.90
9537;DHT22;4807;48.024;11.726;2022-12-29T00:23:42;2.70;99.90
9537;DHT22;4807;48.024;11.726;2022-12-29T00:27:12;2.70;99.90
9537;DHT22;4807;48.024;11.726;2022-12-29T00:30:40;2.60;99.90
9537;DHT22;4807;48.024;11.726;2022-12-29T00:34:10;2.40;99.90
9537;DHT22;4807;48.024;11.726;2022-12-29T00:37:37;2.40;99.90
9537;DHT22;4807;48.024;11.726;2022-12-29T00:41:06;2.30;99.90
9537;DHT22;4807;48.024;11.726;2022-12-29T00:44:32;2.30;99.90
9537;DHT22;4807;48.024;11.726;2022-12-29T00:47:42;2.20;99.90
9537;DHT22;4807;48.024;11.726;2022-12-29T00:50:55;2.20;99.90
9537;DHT22;4807;48.024;11.726;2022-12-29T00:54:03;2.20;99.90
9537;DHT22;4807;48.024;11.726;2022-12-29T00:57:11;2.10;99.90
9537;DHT22;4807;48.024;11.726;2022-12-29T01:00:20;2.10;99.90
9537;DHT22;4807;48.024;11.726;2022-12-29T01:03:30;2.10;99.90
9537;DHT22;4807;48.024;11.726;2022-12-29T01:06:40;2.20;99.90
9537;DHT22;4807;48.024;11.726;2022-12-29T01:09:49;2.10;99.90
9537;DHT22;4807;48.024;11.726;2022-12-29T01:13:15;2.10;99.90
9537;DHT22;4807;48.024;11.726;2022-12-29T01:16:23;2.10;99.90
9537;DHT22;4807;48.024;11.726;2022-12-29T01:19:33;2.00;99.90
9537;DHT22;4807;48.024;11.726;2022-12-29T01:22:42;2.00;99.90
9537;DHT22;4807;48.024;11.726;2022-12-29T01:25:50;2.00;99.90
9537;DHT22;4807;48.024;11.726;2022-12-29T01:28:59;1.90;99.90
9537;DHT22;4807;48.024;11.726;2022-12-29T01:32:08;1.80;99.90
9537;DHT22;4807;48.024;11.726;2022-12-29T01:35:19;1.70;99.90
9537;DHT22;4807;48.024;11.726;2022-12-29T01:38:28;1.70;99.90
9537;DHT22;4807;48.024;11.726;2022-12-29T01:41:36;1.70;99.90
9537;DHT22;4807;48.024;11.726;2022-12-29T01:44:50;1.60;99.90
9537;DHT22;4807;48.024;11.726;2022-12-29T01:48:02;1.70;99.90
9537;DHT22;4807;48.024;11.726;2022-12-29T01:51:16;1.70;99.90
9537;DHT22;4807;48.024;11.726;2022-12-29T01:54:28;1.70;99.90
9537;DHT22;4807;48.024;11.726;2022-12-29T01:57:41;1.80;99.90
9537;DHT22;4807;48.024;11.726;2022-12-29T02:00:54;1.90;99.90
9537;DHT22;4807;48.024;11.726;2022-12-29T02:04:03;1.80;99.90
9537;DHT22;4807;48.024;11.726;2022-12-29T02:07:16;1.90;99.90
9537;DHT22;4807;48.024;11.726;2022-12-29T02:10:29;1.90;99.90
9537;DHT22;4807;48.024;11.726;2022-12-29T02:13:39;1.80;99.90
9537;DHT22;4807;48.024;11.726;2022-12-29T02:16:59;1.80;99.90
9537;DHT22;4807;48.024;11.726;2022-12-29T02:20:41;1.80;99.90
9537;DHT22;4807;48.024;11.726;2022-12-29T02:28:34;1.70;99.90
9537;DHT22;4807;48.024;11.726;2022-12-29T02:32:04;1.80;99.90
9537;DHT22;4807;48.024;11.726;2022-12-29T02:35:25;1.80;99.90
9537;DHT22;4807;48.024;11.726;2022-12-29T02:38:50;1.90;99.90
9537;DHT22;4807;48.024;11.726;2022-12-29T02:42:13;2.10;99.90
9537;DHT22;4807;48.024;11.726;2022-12-29T02:49:48;2.30;99.90
9537;DHT22;4807;48.024;11.726;2022-12-29T02:53:06;2.60;99.90
9537;DHT22;4807;48.024;11.726;2022-12-29T02:56:17;2.60;99.90
9537;DHT22;4807;48.024;11.726;2022-12-29T02:59:26;2.90;99.90
9537;DHT22;4807;48.024;11.726;2022-12-29T03:02:58;3.00;99.90
9537;DHT22;4807;48.024;11.726;2022-12-29T03:06:33;3.00;99.90
9537;DHT22;4807;48.024;11.726;2022-12-29T03:09:54;3.10;99.90
9537;DHT22;4807;48.024;11.726;2022-12-29T03:13:15;3.10;99.90
9537;DHT22;4807;48.024;11.726;2022-12-29T03:16:52;3.10;99.90
9537;DHT22;4807;48.024;11.726;2022-12-29T03:20:08;3.20;99.90
9537;DHT22;4807;48.024;11.726;2022-12-29T03:23:23;3.20;99.90
9537;DHT22;4807;48.024;11.726;2022-12-29T03:26:36;3.20;99.90
9537;DHT22;4807;48.024;11.726;2022-12-29T03:29:46;3.20;99.90
9537;DHT22;4807;48.024;11.726;2022-12-29T03:33:03;3.30;99.90
9537;DHT22;4807;48.024;11.726;2022-12-29T03:36:23;3.30;99.90
9537;DHT22;4807;48.024;11.726;2022-12-29T03:39:37;3.40;99.90
9537;DHT22;4807;48.024;11.726;2022-12-29T03:42:46;3.30;99.90
9537;DHT22;4807;48.024;11.726;2022-12-29T03:45:56;3.30;99.90
9537;DHT22;4807;48.024;11.726;2022-12-29T03:49:04;3.40;99.90
9537;DHT22;4807;48.024;11.726;2022-12-29T03:52:12;3.40;99.90
9537;DHT22;4807;48.024;11.726;2022-12-29T03:55:24;3.40;99.80
9537;DHT22;4807;48.024;11.726;2022-12-29T03:58:33;3.50;99.70
9537;DHT22;4807;48.024;11.726;2022-12-29T04:01:57;3.60;99.90
9537;DHT22;4807;48.024;11.726;2022-12-29T04:05:07;3.80;99.10
9537;DHT22;4807;48.024;11.726;2022-12-29T04:08:17;3.90;98.70
9537;DHT22;4807;48.024;11.726;2022-12-29T04:11:26;4.00;98.90
9537;DHT22;4807;48.024;11.726;2022-12-29T04:14:42;4.00;98.80
9537;DHT22;4807;48.024;11.726;2022-12-29T04:17:51;4.20;98.40
9537;DHT22;4807;48.024;11.726;2022-12-29T04:20:59;4.20;98.10
9537;DHT22;4807;48.024;11.726;2022-12-29T04:24:08;4.20;98.30
9537;DHT22;4807;48.024;11.726;2022-12-29T04:27:24;4.20;98.10
9537;DHT22;4807;48.024;11.726;2022-12-29T04:30:55;4.30;98.10
9537;DHT22;4807;48.024;11.726;2022-12-29T04:34:07;4.30;98.00
9537;DHT22;4807;48.024;11.726;2022-12-29T04:37:17;4.40;98.30
9537;DHT22;4807;48.024;11.726;2022-12-29T04:40:26;4.40;98.10
9537;DHT22;4807;48.024;11.726;2022-12-29T04:43:35;4.40;98.00
9537;DHT22;4807;48.024;11.726;2022-12-29T04:47:13;4.40;98.10
9537;DHT22;4807;48.024;11.726;2022-12-29T04:50:59;4.50;98.20
9537;DHT22;4807;48.024;11.726;2022-12-29T04:54:14;4.60;98.20
9537;DHT22;4807;48.024;11.726;2022-12-29T04:57:27;4.60;98.50
9537;DHT22;4807;48.024;11.726;2022-12-29T05:00:39;4.60;98.40
9537;DHT22;4807;48.024;11.726;2022-12-29T05:03:49;4.50;98.60
9537;DHT22;4807;48.024;11.726;2022-12-29T05:06:59;4.50;98.80
9537;DHT22;4807;48.024;11.726;2022-12-29T05:10:09;4.50;98.80
9537;DHT22;4807;48.024;11.726;2022-12-29T05:13:19;4.50;99.60
9537;DHT22;4807;48.024;11.726;2022-12-29T05:16:29;4.50;98.80
9537;DHT22;4807;48.024;11.726;2022-12-29T05:19:39;4.50;99.00
9537;DHT22;4807;48.024;11.726;2022-12-29T05:22:47;4.60;99.00
9537;DHT22;4807;48.024;11.726;2022-12-29T05:25:55;4.60;98.50
9537;DHT22;4807;48.024;11.726;2022-12-29T05:29:26;4.50;98.80
9537;DHT22;4807;48.024;11.726;2022-12-29T05:32:36;4.50;99.30
9537;DHT22;4807;48.024;11.726;2022-12-29T05:35:44;4.50;99.10
9537;DHT22;4807;48.024;11.726;2022-12-29T05:38:53;4.50;99.40
9537;DHT22;4807;48.024;11.726;2022-12-29T05:42:02;4.50;99.70
9537;DHT22;4807;48.024;11.726;2022-12-29T05:45:29;4.50;99.70
9537;DHT22;4807;48.024;11.726;2022-12-29T05:48:58;2.80;98.50
9537;DHT22;4807;48.024;11.726;2022-12-29T05:52:36;4.50;99.20
9537;DHT22;4807;48.024;11.726;2022-12-29T05:55:47;4.60;99.10
9537;DHT22;4807;48.024;11.726;2022-12-29T05:58:56;4.50;99.10
9537;DHT22;4807;48.024;11.726;2022-12-29T06:02:05;4.50;99.70
9537;DHT22;4807;48.024;11.726;2022-12-29T06:05:16;4.50;99.70
9537;DHT22;4807;48.024;11.726;2022-12-29T06:08:24;4.50;99.70
9537;DHT22;4807;48.024;11.726;2022-12-29T06:11:32;4.50;99.10
9537;DHT22;4807;48.024;11.726;2022-12-29T06:14:42;4.50;99.50
9537;DHT22;4807;48.024;11.726;2022-12-29T06:17:51;4.40;99.60
9537;DHT22;4807;48.024;11.726;2022-12-29T06:21:01;4.40;99.60
9537;DHT22;4807;48.024;11.726;2022-12-29T06:24:10;4.40;99.50
9537;DHT22;4807;48.024;11.726;2022-12-29T06:27:19;4.40;99.70
9537;DHT22;4807;48.024;11.726;2022-12-29T06:30:30;4.40;99.70
9537;DHT22;4807;48.024;11.726;2022-12-29T06:33:40;4.30;99.60
9537;DHT22;4807;48.024;11.726;2022-12-29T06:36:57;4.20;99.90
9537;DHT22;4807;48.024;11.726;2022-12-29T06:40:06;4.20;99.90
9537;DHT22;4807;48.024;11.726;2022-12-29T06:43:37;4.30;99.90
9537;DHT22;4807;48.024;11.726;2022-12-29T06:47:16;4.30;99.90
9537;DHT22;4807;48.024;11.726;2022-12-29T06:50:26;4.20;99.90
9537;DHT22;4807;48.024;11.726;2022-12-29T06:53:36;4.20;99.90
9537;DHT22;4807;48.024;11.726;2022-12-29T06:56:44;4.20;99.90
9537;DHT22;4807;48.024;11.726;2022-12-29T06:59:52;4.10;99.90
9537;DHT22;4807;48.024;11.726;2022-12-29T07:03:02;4.10;99.90
9537;DHT22;4807;48.024;11.726;2022-12-29T07:06:13;4.10;99.90
9537;DHT22;4807;48.024;11.726;2022-12-29T07:09:23;4.20;99.90
9537;DHT22;4807;48.024;11.726;2022-12-29T07:12:32;4.20;99.70
9537;DHT22;4807;48.024;11.726;2022-12-29T07:15:43;4.30;99.60
9537;DHT22;4807;48.024;11.726;2022-12-29T07:18:51;5.20;99.20
9537;DHT22;4807;48.024;11.726;2022-12-29T07:22:00;4.70;98.90
9537;DHT22;4807;48.024;11.726;2022-12-29T07:25:10;4.70;98.70
9537;DHT22;4807;48.024;11.726;2022-12-29T07:28:18;4.80;98.20
9537;DHT22;4807;48.024;11.726;2022-12-29T07:31:26;4.80;98.20
9537;DHT22;4807;48.024;11.726;2022-12-29T07:34:35;4.80;98.30
9537;DHT22;4807;48.024;11.726;2022-12-29T07:37:43;4.90;98.30
9537;DHT22;4807;48.024;11.726;2022-12-29T07:40:56;4.90;97.90
9537;DHT22;4807;48.024;11.726;2022-12-29T07:44:05;4.90;98.10
9537;DHT22;4807;48.024;11.726;2022-12-29T07:47:35;5.00;97.70
9537;DHT22;4807;48.024;11.726;2022-12-29T07:50:43;5.10;97.60
9537;DHT22;4807;48.024;11.726;2022-12-29T07:53:51;5.00;97.80
9537;DHT22;4807;48.024;11.726;2022-12-29T07:57:01;5.00;97.80
9537;DHT22;4807;48.024;11.726;2022-12-29T08:00:11;4.90;97.50
9537;DHT22;4807;48.024;11.726;2022-12-29T08:03:20;4.80;97.90
9537;DHT22;4807;48.024;11.726;2022-12-29T08:06:28;4.80;97.50
9537;DHT22;4807;48.024;11.726;2022-12-29T08:09:37;4.80;97.60
9537;DHT22;4807;48.024;11.726;2022-12-29T08:12:48;4.80;97.70
9537;DHT22;4807;48.024;11.726;2022-12-29T08:15:57;4.90;97.70
9537;DHT22;4807;48.024;11.726;2022-12-29T08:19:06;5.00;97.90
9537;DHT22;4807;48.024;11.726;2022-12-29T08:22:15;5.10;97.30
9537;DHT22;4807;48.024;11.726;2022-12-29T08:25:23;5.30;97.10
9537;DHT22;4807;48.024;11.726;2022-12-29T08:28:33;5.50;96.70
9537;DHT22;4807;48.024;11.726;2022-12-29T08:31:41;5.60;96.10
9537;DHT22;4807;48.024;11.726;2022-12-29T08:34:50;5.70;95.80
9537;DHT22;4807;48.024;11.726;2022-12-29T08:37:58;5.80;95.60
9537;DHT22;4807;48.024;11.726;2022-12-29T08:41:07;5.80;95.40
9537;DHT22;4807;48.024;11.726;2022-12-29T08:44:17;5.90;95.40
9537;DHT22;4807;48.024;11.726;2022-12-29T08:47:25;5.90;95.20
9537;DHT22;4807;48.024;11.726;2022-12-29T08:50:34;6.00;95.40
9537;DHT22;4807;48.024;11.726;2022-12-29T08:53:42;6.00;95.10
9537;DHT22;4807;48.024;11.726;2022-12-29T08:56:50;6.00;94.90
9537;DHT22;4807;48.024;11.726;2022-12-29T09:00:07;6.10;95.00
9537;DHT22;4807;48.024;11.726;2022-12-29T09:03:16;6.30;94.40
9537;DHT22;4807;48.024;11.726;2022-12-29T09:06:45;6.40;94.00
9537;DHT22;4807;48.024;11.726;2022-12-29T09:09:53;6.50;94.20
9537;DHT22;4807;48.024;11.726;2022-12-29T09:13:02;6.60;93.60
9537;DHT22;4807;48.024;11.726;2022-12-29T09:16:14;6.60;93.60
9537;DHT22;4807;48.024;11.726;2022-12-29T09:19:23;6.60;94.00
9537;DHT22;4807;48.024;11.726;2022-12-29T09:22:31;6.70;93.70
9537;DHT22;4807;48.024;11.726;2022-12-29T09:25:39;6.60;93.40
9537;DHT22;4807;48.024;11.726;2022-12-29T09:28:50;6.60;93.80
9537;DHT22;4807;48.024;11.726;2022-12-29T09:31:59;6.70;93.70
9537;DHT22;4807;48.024;11.726;2022-12-29T09:35:14;6.80;93.40
9537;DHT22;4807;48.024;11.726;2022-12-29T09:38:24;7.00;93.50
9537;DHT22;4807;48.024;11.726;2022-12-29T09:41:38;7.20;93.30
9537;DHT22;4807;48.024;11.726;2022-12-29T09:45:05;7.40;93.00
9537;DHT22;4807;48.024;11.726;2022-12-29T09:48:26;7.80;92.40
9537;DHT22;4807;48.024;11.726;2022-12-29T09:51:39;7.80;92.80
9537;DHT22;4807;48.024;11.726;2022-12-29T09:54:54;8.00;92.40
9537;DHT22;4807;48.024;11.726;2022-12-29T09:58:15;8.30;92.10
9537;DHT22;4807;48.024;11.726;2022-12-29T10:01:32;8.70;91.50
9537;DHT22;4807;48.024;11.726;2022-12-29T10:04:46;9.10;90.70
9537;DHT22;4807;48.024;11.726;2022-12-29T10:08:01;9.60;90.00
9537;DHT22;4807;48.024;11.726;2022-12-29T10:11:34;10.00;87.20
9537;DHT22;4807;48.024;11.726;2022-12-29T10:15:04;10.30;86.00
9537;DHT22;4807;48.024;11.726;2022-12-29T10:22:23;10.40;82.70
9537;DHT22;4807;48.024;11.726;2022-12-29T10:25:42;10.40;81.80
9537;DHT22;4807;48.024;11.726;2022-12-29T10:28:55;10.50;80.70
9537;DHT22;4807;48.024;11.726;2022-12-29T10:32:09;10.60;81.50
9537;DHT22;4807;48.024;11.726;2022-12-29T10:35:31;11.70;81.00
9537;DHT22;4807;48.024;11.726;2022-12-29T10:38:48;10.50;80.20
9537;DHT22;4807;48.024;11.726;2022-12-29T10:42:15;10.50;80.20
9537;DHT22;4807;48.024;11.726;2022-12-29T10:45:31;10.50;79.60
9537;DHT22;4807;48.024;11.726;2022-12-29T10:48:42;10.40;80.30
9537;DHT22;4807;48.024;11.726;2022-12-29T10:51:55;10.40;80.00
9537;DHT22;4807;48.024;11.726;2022-12-29T10:55:13;10.50;79.10
9537;DHT22;4807;48.024;11.726;2022-12-29T10:58:26;10.40;80.00
9537;DHT22;4807;48.024;11.726;2022-12-29T11:01:42;10.60;79.40
9537;DHT22;4807;48.024;11.726;2022-12-29T11:05:01;10.70;78.30
9537;DHT22;4807;48.024;11.726;2022-12-29T11:08:18;10.80;78.70
9537;DHT22;4807;48.024;11.726;2022-12-29T11:11:35;10.90;77.30
9537;DHT22;4807;48.024;11.726;2022-12-29T11:14:44;10.90;79.30
9537;DHT22;4807;48.024;11.726;2022-12-29T11:17:53;11.10;79.30
9537;DHT22;4807;48.024;11.726;2022-12-29T11:21:09;11.10;77.50
9537;DHT22;4807;48.024;11.726;2022-12-29T11:24:44;11.20;77.30
9537;DHT22;4807;48.024;11.726;2022-12-29T11:28:00;11.30;75.60
9537;DHT22;4807;48.024;11.726;2022-12-29T11:31:16;11.30;73.30
9537;DHT22;4807;48.024;11.726;2022-12-29T11:34:31;11.20;73.90
9537;DHT22;4807;48.024;11.726;2022-12-29T11:37:41;11.10;72.00
9537;DHT22;4807;48.024;11.726;2022-12-29T11:40:49;11.20;73.10
9537;DHT22;4807;48.024;11.726;2022-12-29T11:44:01;11.10;74.00
9537;DHT22;4807;48.024;11.726;2022-12-29T11:47:23;11.20;77.30
9537;DHT22;4807;48.024;11.726;2022-12-29T11:50:39;11.40;72.60
9537;DHT22;4807;48.024;11.726;2022-12-29T11:53:51;11.50;74.90
9537;DHT22;4807;48.024;11.726;2022-12-29T11:57:10;11.70;73.10
9537;DHT22;4807;48.024;11.726;2022-12-29T12:00:24;11.70;73.30
9537;DHT22;4807;48.024;11.726;2022-12-29T12:03:39;11.70;72.20
9537;DHT22;4807;48.024;11.726;2022-12-29T12:07:01;11.70;72.40
9537;DHT22;4807;48.024;11.726;2022-12-29T12:10:25;11.50;69.30
9537;DHT22;4807;48.024;11.726;2022-12-29T12:13:40;11.40;70.50
9537;DHT22;4807;48.024;11.726;2022-12-29T12:17:02;11.40;70.50
9537;DHT22;4807;48.024;11.726;2022-12-29T12:20:16;11.30;69.50
9537;DHT22;4807;48.024;11.726;2022-12-29T12:23:38;11.20;69.20
9537;DHT22;4807;48.024;11.726;2022-12-29T12:26:58;11.20;68.20
9537;DHT22;4807;48.024;11.726;2022-12-29T12:30:14;11.20;70.30
9537;DHT22;4807;48.024;11.726;2022-12-29T12:33:28;11.20;69.70
9537;DHT22;4807;48.024;11.726;2022-12-29T12:36:53;11.30;70.10
9537;DHT22;4807;48.024;11.726;2022-12-29T12:40:28;11.50;69.70
9537;DHT22;4807;48.024;11.726;2022-12-29T12:44:01;12.10;69.70
9537;DHT22;4807;48.024;11.726;2022-12-29T12:47:30;12.80;68.20
9537;DHT22;4807;48.024;11.726;2022-12-29T12:50:59;13.50;63.70
9537;DHT22;4807;48.024;11.726;2022-12-29T12:54:34;13.30;64.30
9537;DHT22;4807;48.024;11.726;2022-12-29T12:58:00;12.90;64.90
9537;DHT22;4807;48.024;11.726;2022-12-29T13:01:28;12.60;64.50
9537;DHT22;4807;48.024;11.726;2022-12-29T13:08:50;12.20;63.90
9537;DHT22;4807;48.024;11.726;2022-12-29T13:12:29;12.10;65.20
9537;DHT22;4807;48.024;11.726;2022-12-29T13:15:51;12.00;66.20
9537;DHT22;4807;48.024;11.726;2022-12-29T13:19:10;11.90;66.40
9537;DHT22;4807;48.024;11.726;2022-12-29T13:22:27;11.90;65.40
9537;DHT22;4807;48.024;11.726;2022-12-29T13:25:47;11.90;65.40
9537;DHT22;4807;48.024;11.726;2022-12-29T13:29:05;11.80;67.90
9537;DHT22;4807;48.024;11.726;2022-12-29T13:32:23;11.70;65.80
9537;DHT22;4807;48.024;11.726;2022-12-29T13:35:52;11.70;66.60
9537;DHT22;4807;48.024;11.726;2022-12-29T13:39:08;11.70;66.00
9537;DHT22;4807;48.024;11.726;2022-12-29T13:42:28;11.60;67.90
9537;DHT22;4807;48.024;11.726;2022-12-29T13:45:39;11.50;67.10
9537;DHT22;4807;48.024;11.726;2022-12-29T13:48:52;11.50;68.10
9537;DHT22;4807;48.024;11.726;2022-12-29T13:52:12;11.40;69.40
9537;DHT22;4807;48.024;11.726;2022-12-29T13:55:28;11.40;69.30
9537;DHT22;4807;48.024;11.726;2022-12-29T13:58:50;11.30;68.70
9537;DHT22;4807;48.024;11.726;2022-12-29T14:02:10;11.20;69.70
9537;DHT22;4807;48.024;11.726;2022-12-29T14:05:31;11.20;70.00
9537;DHT22;4807;48.024;11.726;2022-12-29T14:08:40;11.10;69.00
9537;DHT22;4807;48.024;11.726;2022-12-29T14:11:48;10.90;71.00
9537;DHT22;4807;48.024;11.726;2022-12-29T14:15:23;10.90;70.50
9537;DHT22;4807;48.024;11.726;2022-12-29T14:18:34;10.80;70.50
9537;DHT22;4807;48.024;11.726;2022-12-29T14:21:51;10.70;70.70
9537;DHT22;4807;48.024;11.726;2022-12-29T14:25:02;10.70;71.20
9537;DHT22;4807;48.024;11.726;2022-12-29T14:28:16;10.50;71.60
9537;DHT22;4807;48.024;11.726;2022-12-29T14:31:36;10.40;71.30
9537;DHT22;4807;48.024;11.726;2022-12-29T14:34:48;10.30;71.70
9537;DHT22;4807;48.024;11.726;2022-12-29T14:38:06;10.30;71.40
9537;DHT22;4807;48.024;11.726;2022-12-29T14:41:28;10.20;71.60
9537;DHT22;4807;48.024;11.726;2022-12-29T14:44:48;10.20;72.90
9537;DHT22;4807;48.024;11.726;2022-12-29T14:48:00;10.10;72.30
9537;DHT22;4807;48.024;11.726;2022-12-29T14:51:19;10.10;74.00
9537;DHT22;4807;48.024;11.726;2022-12-29T14:54:45;10.00;74.80
9537;DHT22;4807;48.024;11.726;2022-12-29T14:57:59;9.90;75.40
9537;DHT22;4807;48.024;11.726;2022-12-29T15:01:22;9.70;75.50
9537;DHT22;4807;48.024;11.726;2022-12-29T15:04:36;9.70;79.80
9537;DHT22;4807;48.024;11.726;2022-12-29T15:07:46;9.30;80.90
9537;DHT22;4807;48.024;11.726;2022-12-29T15:10:58;9.20;80.90
9537;DHT22;4807;48.024;11.726;2022-12-29T15:14:49;9.00;81.10
9537;DHT22;4807;48.024;11.726;2022-12-29T15:18:13;8.90;81.40
9537;DHT22;4807;48.024;11.726;2022-12-29T15:21:30;8.90;80.50
9537;DHT22;4807;48.024;11.726;2022-12-29T15:24:41;8.80;80.50
9537;DHT22;4807;48.024;11.726;2022-12-29T15:27:51;8.60;81.60
9537;DHT22;4807;48.024;11.726;2022-12-29T15:31:04;8.40;82.40
9537;DHT22;4807;48.024;11.726;2022-12-29T15:34:14;8.30;83.60
9537;DHT22;4807;48.024;11.726;2022-12-29T15:37:32;8.30;82.80
9537;DHT22;4807;48.024;11.726;2022-12-29T15:40:43;8.00;84.60
9537;DHT22;4807;48.024;11.726;2022-12-29T15:44:05;7.90;87.00
9537;DHT22;4807;48.024;11.726;2022-12-29T15:47:21;7.80;86.90
9537;DHT22;4807;48.024;11.726;2022-12-29T15:50:33;7.60;88.80
9537;DHT22;4807;48.024;11.726;2022-12-29T15:53:47;7.50;90.00
9537;DHT22;4807;48.024;11.726;2022-12-29T15:56:56;7.40;90.60
9537;DHT22;4807;48.024;11.726;2022-12-29T16:00:22;7.40;90.30
9537;DHT22;4807;48.024;11.726;2022-12-29T16:03:34;7.30;90.90
9537;DHT22;4807;48.024;11.726;2022-12-29T16:06:55;7.20;90.70
9537;DHT22;4807;48.024;11.726;2022-12-29T16:10:25;7.40;90.40
9537;DHT22;4807;48.024;11.726;2022-12-29T16:13:39;7.40;90.00
9537;DHT22;4807;48.024;11.726;2022-12-29T16:16:50;7.50;89.20
9537;DHT22;4807;48.024;11.726;2022-12-29T16:20:03;7.60;89.60
9537;DHT22;4807;48.024;11.726;2022-12-29T16:23:20;7.40;90.10
9537;DHT22;4807;48.024;11.726;2022-12-29T16:26:33;7.40;90.10
9537;DHT22;4807;48.024;11.726;2022-12-29T16:29:43;7.50;89.40
9537;DHT22;4807;48.024;11.726;2022-12-29T16:32:53;7.50;89.80
9537;DHT22;4807;48.024;11.726;2022-12-29T16:36:23;7.50;90.20
9537;DHT22;4807;48.024;11.726;2022-12-29T16:39:34;7.60;90.00
9537;DHT22;4807;48.024;11.726;2022-12-29T16:42:49;7.60;91.20
9537;DHT22;4807;48.024;11.726;2022-12-29T16:46:21;7.60;90.60
9537;DHT22;4807;48.024;11.726;2022-12-29T16:49:39;7.70;91.00
9537;DHT22;4807;48.024;11.726;2022-12-29T16:52:53;7.70;90.70
9537;DHT22;4807;48.024;11.726;2022-12-29T16:56:07;7.70;91.00
9537;DHT22;4807;48.024;11.726;2022-12-29T16:59:30;7.70;90.80
9537;DHT22;4807;48.024;11.726;2022-12-29T17:02:42;7.70;90.80
9537;DHT22;4807;48.024;11.726;2022-12-29T17:05:52;7.80;90.70
9537;DHT22;4807;48.024;11.726;2022-12-29T17:09:16;7.70;91.10
9537;DHT22;4807;48.024;11.726;2022-12-29T17:12:28;7.70;91.80
9537;DHT22;4807;48.024;11.726;2022-12-29T17:15:43;7.30;92.10
9537;DHT22;4807;48.024;11.726;2022-12-29T17:18:52;7.10;91.80
9537;DHT22;4807;48.024;11.726;2022-12-29T17:22:01;7.00;92.40
9537;DHT22;4807;48.024;11.726;2022-12-29T17:25:12;6.90;91.80
9537;DHT22;4807;48.024;11.726;2022-12-29T17:28:24;6.80;92.20
9537;DHT22;4807;48.024;11.726;2022-12-29T17:31:39;6.70;92.40
9537;DHT22;4807;48.024;11.726;2022-12-29T17:34:47;6.50;92.90
9537;DHT22;4807;48.024;11.726;2022-12-29T17:37:56;6.40;93.00
9537;DHT22;4807;48.024;11.726;2022-12-29T17:41:10;6.40;92.90
9537;DHT22;4807;48.024;11.726;2022-12-29T17:44:27;6.20;93.40
9537;DHT22;4807;48.024;11.726;2022-12-29T17:47:37;6.20;93.60
9537;DHT22;4807;48.024;11.726;2022-12-29T17:50:48;6.90;93.90
9537;DHT22;4807;48.024;11.726;2022-12-29T17:53:59;6.10;93.40
9537;DHT22;4807;48.024;11.726;2022-12-29T17:57:08;6.10;93.60
9537;DHT22;4807;48.024;11.726;2022-12-29T18:00:26;6.10;93.90
9537;DHT22;4807;48.024;11.726;2022-12-29T18:03:39;6.00;93.90
9537;DHT22;4807;48.024;11.726;2022-12-29T18:06:48;5.90;93.90
9537;DHT22;4807;48.024;11.726;2022-12-29T18:09:56;6.00;94.00
9537;DHT22;4807;48.024;11.726;2022-12-29T18:13:05;5.90;94.10
9537;DHT22;4807;48.024;11.726;2022-12-29T18:16:14;5.90;94.40
9537;DHT22;4807;48.024;11.726;2022-12-29T18:19:24;5.90;94.60
9537;DHT22;4807;48.024;11.726;2022-12-29T18:22:41;5.90;94.20
9537;DHT22;4807;48.024;11.726;2022-12-29T18:25:53;5.90;94.20
9537;DHT22;4807;48.024;11.726;2022-12-29T18:29:05;5.90;94.20
9537;DHT22;4807;48.024;11.726;2022-12-29T18:32:15;5.80;93.80
9537;DHT22;4807;48.024;11.726;2022-12-29T18:35:29;5.80;93.90
9537;DHT22;4807;48.024;11.726;2022-12-29T18:38:45;5.80;94.40
9537;DHT22;4807;48.024;11.726;2022-12-29T18:41:54;5.80;94.10
9537;DHT22;4807;48.024;11.726;2022-12-29T18:45:14;5.80;94.10
9537;DHT22;4807;48.024;11.726;2022-12-29T18:48:25;5.90;94.40
9537;DHT22;4807;48.024;11.726;2022-12-29T18:51:38;5.90;94.10
9537;DHT22;4807;48.024;11.726;2022-12-29T18:54:46;5.90;94.30
9537;DHT22;4807;48.024;11.726;2022-12-29T18:57:58;5.90;94.00
9537;DHT22;4807;48.024;11.726;2022-12-29T19:01:18;6.00;94.50
9537;DHT22;4807;48.024;11.726;2022-12-29T19:04:31;6.10;93.80
9537;DHT22;4807;48.024;11.726;2022-12-29T19:07:42;5.90;94.60
9537;DHT22;4807;48.024;11.726;2022-12-29T19:10:50;5.90;94.80
9537;DHT22;4807;48.024;11.726;2022-12-29T19:13:59;5.90;94.90
9537;DHT22;4807;48.024;11.726;2022-12-29T19:17:10;5.90;94.90
9537;DHT22;4807;48.024;11.726;2022-12-29T19:20:26;6.00;94.90
9537;DHT22;4807;48.024;11.726;2022-12-29T19:23:41;6.00;94.60
9537;DHT22;4807;48.024;11.726;2022-12-29T19:26:50;6.00;94.90
9537;DHT22;4807;48.024;11.726;2022-12-29T19:29:58;6.00;94.90
9537;DHT22;4807;48.024;11.726;2022-12-29T19:33:08;6.20;94.00
9537;DHT22;4807;48.024;11.726;2022-12-29T19:36:18;6.20;94.30
9537;DHT22;4807;48.024;11.726;2022-12-29T19:39:29;6.10;94.70
9537;DHT22;4807;48.024;11.726;2022-12-29T19:42:37;6.10;94.70
9537;DHT22;4807;48.024;11.726;2022-12-29T19:45:46;6.10;94.50
9537;DHT22;4807;48.024;11.726;2022-12-29T19:48:55;6.10;94.60
9537;DHT22;4807;48.024;11.726;2022-12-29T19:52:05;6.10;94.80
9537;DHT22;4807;48.024;11.726;2022-12-29T19:55:16;6.10;94.50
9537;DHT22;4807;48.024;11.726;2022-12-29T19:58:24;5.00;94.10
9537;DHT22;4807;48.024;11.726;2022-12-29T20:01:33;6.20;94.60
9537;DHT22;4807;48.024;11.726;2022-12-29T20:04:42;6.10;94.50
9537;DHT22;4807;48.024;11.726;2022-12-29T20:07:51;6.10;94.60
9537;DHT22;4807;48.024;11.726;2022-12-29T20:11:03;6.20;94.40
9537;DHT22;4807;48.024;11.726;2022-12-29T20:14:13;6.10;94.50
9537;DHT22;4807;48.024;11.726;2022-12-29T20:17:22;6.10;95.10
9537;DHT22;4807;48.024;11.726;2022-12-29T20:20:50;6.10;95.40
9537;DHT22;4807;48.024;11.726;2022-12-29T20:23:59;6.00;95.60
9537;DHT22;4807;48.024;11.726;2022-12-29T20:27:10;6.10;95.50
9537;DHT22;4807;48.024;11.726;2022-12-29T20:30:20;6.10;95.30
9537;DHT22;4807;48.024;11.726;2022-12-29T20:33:31;6.10;94.90
9537;DHT22;4807;48.024;11.726;2022-12-29T20:36:44;6.20;94.90
9537;DHT22;4807;48.024;11.726;2022-12-29T20:39:55;6.30;94.60
9537;DHT22;4807;48.024;11.726;2022-12-29T20:43:05;6.50;94.20
9537;DHT22;4807;48.024;11.726;2022-12-29T20:46:13;6.50;94.50
9537;DHT22;4807;48.024;11.726;2022-12-29T20:49:27;6.60;94.40
9537;DHT22;4807;48.024;11.726;2022-12-29T20:52:36;6.70;94.40
9537;DHT22;4807;48.024;11.726;2022-12-29T20:55:44;6.80;94.70
9537;DHT22;4807;48.024;11.726;2022-12-29T20:58:54;6.90;94.50
9537;DHT22;4807;48.024;11.726;2022-12-29T21:02:22;6.80;94.60
9537;DHT22;4807;48.024;11.726;2022-12-29T21:05:31;6.70;94.80
9537;DHT22;4807;48.024;11.726;2022-12-29T21:08:43;6.60;95.00
9537;DHT22;4807;48.024;11.726;2022-12-29T21:11:52;6.60;95.10
9537;DHT22;4807;48.024;11.726;2022-12-29T21:15:02;6.50;95.20
9537;DHT22;4807;48.024;11.726;2022-12-29T21:18:11;6.50;95.40
9537;DHT22;4807;48.024;11.726;2022-12-29T21:21:22;6.40;95.60